This is the latest recevied weather packets stored in our database for station/object KC5DP. If no packets are shown the sender has not sent any weather packets the latest 10 day(s).
| Time | Temp. | Humidity | Pressure | Rain* | Wind** | Luminosity | Snow |
|---|---|---|---|---|---|---|---|
| 1777605913 | 19.44° C | 99% | 1012 hPa | 0 mm | - | 0 W/m² | - |
| 1777605608 | 19.44° C | 99% | 1012.2 hPa | 0 mm | - | 0 W/m² | - |
| 1777605308 | 19.44° C | 99% | 1012.2 hPa | 0 mm | - | 0 W/m² | - |
| 1777605004 | 19.44° C | 99% | 1012.1 hPa | 0 mm | - | 0 W/m² | - |
| 1777604700 | 19.44° C | 99% | 1012 hPa | 0 mm | - | 0 W/m² | - |
| 1777604397 | 19.44° C | 99% | 1011.8 hPa | 0 mm | - | 0 W/m² | - |
| 1777604096 | 20° C | 99% | 1011.9 hPa | 0 mm | - | 0 W/m² | - |
| 1777603794 | 20° C | 99% | 1012 hPa | 0 mm | - | 0 W/m² | - |
| 1777603490 | 20° C | 99% | 1012 hPa | 0 mm | - | 0 W/m² | - |
| 1777603186 | 20° C | 99% | 1011.8 hPa | 0 mm | - | 0 W/m² | - |
| 1777602882 | 20° C | 99% | 1011.6 hPa | 0 mm | - | 0 W/m² | - |
| 1777602577 | 20.56° C | 99% | 1011.7 hPa | 0 mm | - | 0 W/m² | - |
| 1777602273 | 20.56° C | 99% | 1011.4 hPa | 0 mm | - | 0 W/m² | - |
| 1777601968 | 20.56° C | 99% | 1011.1 hPa | 0 mm | - | 0 W/m² | - |
| 1777601664 | 20.56° C | 99% | 1011.2 hPa | 0 mm | - | 0 W/m² | - |
| 1777601360 | 21.11° C | 99% | 1011.1 hPa | 0 mm | - | 0 W/m² | - |
| 1777601056 | 21.11° C | 99% | 1011.1 hPa | 0 mm | - | 0 W/m² | - |
| 1777600149 | 21.11° C | 99% | 1010.2 hPa | 0 mm | - | 0 W/m² | - |
| 1777586799 | 21.67° C | 98% | 1009.6 hPa | 12.7 mm | - | 12 W/m² | - |
| 1777586190 | 21.67° C | 98% | 1009.7 hPa | 10.67 mm | - | 14 W/m² | - |
| 1777585582 | 21.67° C | 97% | 1010 hPa | 10.67 mm | - | 13 W/m² | - |
| 1777584972 | 22.22° C | 97% | 1010 hPa | 8.89 mm | - | 11 W/m² | - |
| 1777584669 | 22.22° C | 96% | 1009.8 hPa | 6.1 mm | - | 15 W/m² | - |
| 1777584367 | 22.22° C | 95% | 1009.6 hPa | 7.87 mm | - | 19 W/m² | - |
| 1777583757 | 22.78° C | 93% | 1009.7 hPa | 6.1 mm | - | 17 W/m² | - |
* Rain latest hour (hover to see other rain measurements)
** Current wind speed in m/s (hover to see current wind gust speed)